Time;durP1;ratioP1;P1;durP2;ratioP2;P2;SDS_P1;SDS_P2;PMS_P1;PMS_P2;Temp;Humidity;BMP_temperature;BMP_pressure;BME280_temperature;BME280_humidity;BME280_pressure;Samples;Min_cycle;Max_cycle;Signal;HPM_P1;HPM_P2
2023/09/15 00:00:11;;;;;;;2.28;1.88;;;;;;;13.83;100.00;99448.53;5181707;27;20046;-63
2023/09/15 00:02:37;;;;;;;3.22;1.45;;;;;;;13.95;100.00;99439.16;5181243;27;20057;-63
2023/09/15 00:05:03;;;;;;;2.75;2.20;;;;;;;14.11;100.00;99439.69;5181730;27;20153;-62
2023/09/15 00:07:29;;;;;;;2.08;1.80;;;;;;;13.89;100.00;99451.72;5181192;27;20053;-62
2023/09/15 00:09:55;;;;;;;2.50;1.70;;;;;;;14.26;100.00;99450.84;5181496;27;20069;-62
2023/09/15 00:12:21;;;;;;;4.80;1.70;;;;;;;14.03;100.00;99468.41;5181372;27;20069;-63
2023/09/15 00:14:48;;;;;;;4.15;1.85;;;;;;;13.98;100.00;99476.22;5181276;27;20050;-62
2023/09/15 00:17:14;;;;;;;2.42;1.45;;;;;;;13.99;100.00;99478.56;5181359;27;20065;-63
2023/09/15 00:19:41;;;;;;;4.20;2.17;;;;;;;14.01;100.00;99481.75;5181160;27;20411;-63
2023/09/15 00:22:07;;;;;;;2.15;1.67;;;;;;;14.01;100.00;99478.22;5181502;27;20053;-64
2023/09/15 00:24:35;;;;;;;2.10;1.90;;;;;;;13.88;100.00;99485.97;5181051;27;20046;-63
2023/09/15 00:27:01;;;;;;;2.25;2.05;;;;;;;13.95;100.00;99483.28;5181040;27;20141;-62
2023/09/15 00:29:26;;;;;;;8.95;2.00;;;;;;;13.76;100.00;99489.81;5180637;27;20141;-62
2023/09/15 00:31:55;;;;;;;4.38;1.75;;;;;;;13.92;100.00;99483.25;5181234;27;20046;-62
2023/09/15 00:34:21;;;;;;;2.08;1.80;;;;;;;13.99;100.00;99489.59;5180820;27;20070;-62
2023/09/15 00:36:49;;;;;;;2.50;1.88;;;;;;;14.15;100.00;99503.13;5181296;27;20046;-62
2023/09/15 00:39:14;;;;;;;4.07;1.90;;;;;;;13.99;100.00;99519.91;5180775;27;20050;-64
2023/09/15 00:41:40;;;;;;;2.80;1.83;;;;;;;13.87;100.00;99517.47;5180871;27;20054;-62
2023/09/15 00:44:06;;;;;;;3.67;1.98;;;;;;;13.90;100.00;99508.44;5180874;27;20060;-62
2023/09/15 00:46:32;;;;;;;3.17;1.90;;;;;;;14.08;100.00;99520.41;5180756;27;20054;-62
2023/09/15 00:49:00;;;;;;;4.20;1.85;;;;;;;14.08;100.00;99536.16;5180742;27;20056;-63
2023/09/15 00:51:26;;;;;;;3.60;1.80;;;;;;;14.20;100.00;99548.88;5180391;27;20042;-62
2023/09/15 00:53:55;;;;;;;3.70;1.95;;;;;;;14.28;100.00;99567.06;5180775;27;20057;-63
2023/09/15 00:56:22;;;;;;;1.98;1.85;;;;;;;14.25;100.00;99584.38;5180386;27;20050;-63
2023/09/15 00:58:48;;;;;;;2.25;2.03;;;;;;;14.10;100.00;99589.75;5180636;27;20319;-62
2023/09/15 01:01:14;;;;;;;8.85;1.88;;;;;;;14.11;100.00;99591.34;5180365;27;20046;-63
2023/09/15 01:03:43;;;;;;;2.85;1.80;;;;;;;14.16;100.00;99600.44;5180848;27;20050;-63
2023/09/15 01:06:11;;;;;;;2.00;1.88;;;;;;;14.04;100.00;99601.50;5180205;27;20061;-63
2023/09/15 01:08:38;;;;;;;3.28;2.10;;;;;;;13.87;100.00;99602.91;5180381;27;20042;-62
2023/09/15 01:11:04;;;;;;;3.15;1.90;;;;;;;13.92;100.00;99599.78;5180412;27;20050;-63
2023/09/15 01:13:31;;;;;;;2.83;1.83;;;;;;;13.75;100.00;99611.41;5180043;27;20141;-62
2023/09/15 01:16:04;;;;;;;5.38;2.13;;;;;;;14.12;100.00;99620.47;5179865;27;20415;-63
2023/09/15 01:18:35;;;;;;;2.90;1.83;;;;;;;14.03;100.00;99639.31;5180264;27;20042;-62
2023/09/15 01:21:51;;;;;;;3.88;1.70;;;;;;;13.91;100.00;99658.84;5180398;27;20046;-62
2023/09/15 01:24:47;;;;;;;3.33;2.22;;;;;;;14.12;100.00;99650.03;5179797;27;20114;-62
2023/09/15 01:27:30;;;;;;;3.60;1.80;;;;;;;13.74;100.00;99656.66;5180205;27;20141;-62
2023/09/15 01:29:59;;;;;;;1.83;1.73;;;;;;;13.99;100.00;99655.00;5180244;27;20087;-63
2023/09/15 01:32:26;;;;;;;2.42;2.15;;;;;;;13.69;100.00;99651.47;5179848;27;20051;-62
2023/09/15 01:34:53;;;;;;;6.20;1.75;;;;;;;14.01;100.00;99651.88;5180211;27;20056;-63
2023/09/15 01:37:20;;;;;;;2.97;1.80;;;;;;;13.94;100.00;99682.91;5179679;27;20076;-63
2023/09/15 01:39:46;;;;;;;2.67;2.47;;;;;;;13.78;100.00;99674.03;5180117;27;20141;-62
2023/09/15 01:42:13;;;;;;;2.63;2.20;;;;;;;13.79;100.00;99686.63;5178732;27;20042;-62
2023/09/15 01:44:39;;;;;;;2.38;2.00;;;;;;;13.82;100.00;99696.91;5179826;27;20194;-62
2023/09/15 01:47:08;;;;;;;5.85;1.75;;;;;;;13.52;100.00;99681.16;5179779;27;20149;-62
2023/09/15 01:49:35;;;;;;;5.50;2.17;;;;;;;13.46;100.00;99666.09;5179655;27;20082;-63
2023/09/15 01:52:02;;;;;;;3.10;2.90;;;;;;;13.63;100.00;99668.34;5179818;27;20129;-64
2023/09/15 01:54:28;;;;;;;9.23;2.72;;;;;;;13.74;100.00;99674.00;5179585;27;20057;-62
2023/09/15 01:56:54;;;;;;;4.20;2.10;;;;;;;13.74;100.00;99692.47;5179418;27;20046;-62
2023/09/15 01:59:20;;;;;;;6.10;2.00;;;;;;;13.56;100.00;99704.06;5179347;27;20046;-63
2023/09/15 02:01:46;;;;;;;1.95;1.85;;;;;;;13.67;100.00;99689.63;5179737;27;20057;-63
2023/09/15 02:04:12;;;;;;;4.20;2.78;;;;;;;13.74;100.00;99703.50;5179334;27;20050;-63
2023/09/15 02:06:38;;;;;;;2.25;2.05;;;;;;;13.86;100.00;99714.28;5179641;27;20145;-63
2023/09/15 02:09:05;;;;;;;3.47;1.80;;;;;;;13.58;100.00;99711.94;5179108;27;20050;-63
2023/09/15 02:11:31;;;;;;;3.63;2.15;;;;;;;13.82;100.00;99707.94;5179627;27;20129;-63
2023/09/15 02:13:57;;;;;;;2.50;2.00;;;;;;;13.76;100.00;99725.94;5179357;27;20061;-62
2023/09/15 02:16:24;;;;;;;6.47;2.30;;;;;;;13.74;100.00;99731.06;5179011;27;20042;-63
2023/09/15 02:18:50;;;;;;;5.55;2.30;;;;;;;13.58;100.00;99739.47;5179390;27;20046;-62
2023/09/15 02:21:17;;;;;;;2.00;1.80;;;;;;;13.65;100.00;99729.34;5179201;27;20057;-62
2023/09/15 02:23:42;;;;;;;5.13;1.92;;;;;;;13.83;100.00;99737.09;5179365;27;20046;-62
2023/09/15 02:26:08;;;;;;;6.70;2.00;;;;;;;13.74;100.00;99731.84;5178847;27;20383;-62
2023/09/15 02:28:35;;;;;;;3.58;2.10;;;;;;;13.68;100.00;99752.63;5179491;27;20115;-63
2023/09/15 02:31:04;;;;;;;3.10;2.20;;;;;;;13.23;100.00;99739.69;5178942;27;20064;-63
2023/09/15 02:33:29;;;;;;;5.60;2.28;;;;;;;13.39;100.00;99718.34;5179263;27;20046;-64
2023/09/15 02:35:55;;;;;;;7.07;2.05;;;;;;;13.25;100.00;99732.69;5178744;27;20060;-63
2023/09/15 02:38:22;;;;;;;5.60;2.15;;;;;;;13.34;100.00;99724.19;5179239;27;20081;-63
2023/09/15 02:40:48;;;;;;;1.70;1.60;;;;;;;13.08;100.00;99736.69;5178714;27;20050;-63
2023/09/15 02:43:14;;;;;;;4.15;1.85;;;;;;;13.40;100.00;99739.22;5178961;27;20128;-63
2023/09/15 02:45:40;;;;;;;4.20;2.03;;;;;;;13.43;100.00;99768.78;5179027;27;20090;-62
2023/09/15 02:48:06;;;;;;;6.18;2.13;;;;;;;13.15;100.00;99763.56;5178859;27;20061;-63
2023/09/15 02:50:32;;;;;;;2.58;1.75;;;;;;;13.10;100.00;99766.63;5179006;27;20088;-64
2023/09/15 02:52:59;;;;;;;1.98;1.50;;;;;;;13.07;100.00;99789.38;5181059;27;20079;-62
2023/09/15 02:55:26;;;;;;;2.72;1.50;;;;;;;13.31;100.00;99783.53;5182777;27;20317;-63
2023/09/15 02:57:52;;;;;;;4.15;1.70;;;;;;;13.36;100.00;99809.94;5182177;27;20046;-63
2023/09/15 03:00:19;;;;;;;3.08;1.70;;;;;;;13.30;100.00;99822.47;5182698;27;20051;-63
2023/09/15 03:02:45;;;;;;;3.10;2.10;;;;;;;13.43;100.00;99815.59;5182167;27;20061;-62
2023/09/15 03:05:12;;;;;;;5.90;1.80;;;;;;;13.58;100.00;99827.63;5182652;27;20133;-63
2023/09/15 03:07:39;;;;;;;3.50;1.92;;;;;;;13.47;100.00;99846.75;5182131;27;20070;-62
2023/09/15 03:10:06;;;;;;;2.88;1.70;;;;;;;13.34;100.00;99843.38;5182508;27;20137;-63
2023/09/15 03:12:33;;;;;;;1.95;1.65;;;;;;;13.11;100.00;99864.56;5182411;27;20199;-61
2023/09/15 03:14:59;;;;;;;3.88;1.88;;;;;;;13.34;100.00;99864.63;5182001;27;20050;-63
2023/09/15 03:17:25;;;;;;;3.83;1.77;;;;;;;13.40;100.00;99863.16;5182257;27;20065;-63
2023/09/15 03:19:50;;;;;;;3.20;1.88;;;;;;;13.30;100.00;99872.03;5182171;27;20137;-63
2023/09/15 03:22:16;;;;;;;4.70;1.70;;;;;;;13.21;100.00;99886.00;5182029;27;20101;-63
2023/09/15 03:24:42;;;;;;;3.20;1.63;;;;;;;13.33;100.00;99885.84;5182244;27;20162;-62
2023/09/15 03:27:08;;;;;;;4.53;1.95;;;;;;;13.09;100.00;99895.19;5182277;27;20061;-62
2023/09/15 03:29:35;;;;;;;3.40;2.00;;;;;;;13.01;100.00;99890.72;5182120;27;20046;-62
2023/09/15 03:32:01;;;;;;;4.97;1.70;;;;;;;12.99;100.00;99894.97;5181913;27;20057;-61
2023/09/15 03:34:27;;;;;;;5.97;1.90;;;;;;;13.06;100.00;99904.19;5181640;27;20145;-62
2023/09/15 03:36:53;;;;;;;2.50;1.98;;;;;;;12.84;100.00;99905.72;5182150;27;20078;-63
2023/09/15 03:39:19;;;;;;;1.80;1.70;;;;;;;12.59;100.00;99896.13;5181556;27;20106;-64
2023/09/15 03:41:45;;;;;;;2.80;1.77;;;;;;;12.63;100.00;99880.53;5181830;27;20069;-63
2023/09/15 03:44:11;;;;;;;2.28;1.85;;;;;;;12.73;100.00;99888.19;5181628;27;20149;-63
2023/09/15 03:46:39;;;;;;;3.55;1.98;;;;;;;12.61;100.00;99894.63;5181509;27;20142;-62
2023/09/15 03:49:05;;;;;;;2.47;2.20;;;;;;;12.25;100.00;99880.09;5181872;27;20122;-63
2023/09/15 03:51:31;;;;;;;2.45;1.92;;;;;;;12.37;100.00;99856.41;5181590;27;20060;-63
2023/09/15 03:53:57;;;;;;;4.68;2.03;;;;;;;12.10;100.00;99864.44;5181790;27;20315;-63
2023/09/15 03:56:24;;;;;;;3.72;2.25;;;;;;;12.41;100.00;99855.31;5181506;27;20415;-64
2023/09/15 03:58:51;;;;;;;2.88;2.10;;;;;;;12.24;100.00;99851.00;5181765;27;20046;-63
2023/09/15 04:01:21;;;;;;;4.28;2.30;;;;;;;12.35;100.00;99866.94;5181252;27;20046;-63
2023/09/15 04:03:47;;;;;;;7.75;2.28;;;;;;;12.36;100.00;99865.78;5181067;27;20042;-62
2023/09/15 04:06:13;;;;;;;1.90;1.77;;;;;;;12.33;100.00;99869.25;5181213;27;20050;-62
2023/09/15 04:08:39;;;;;;;4.38;2.00;;;;;;;12.33;100.00;99874.75;5181316;27;20073;-63
2023/09/15 04:11:07;;;;;;;4.82;3.05;;;;;;;12.23;100.00;99887.91;5181468;27;20057;-62
2023/09/15 04:13:32;;;;;;;13.77;2.10;;;;;;;12.25;100.00;99887.53;5181061;27;20304;-63
2023/09/15 04:16:00;;;;;;;2.30;1.98;;;;;;;12.31;100.00;99872.38;5181293;27;20141;-64
2023/09/15 04:18:26;;;;;;;3.63;2.30;;;;;;;12.40;100.00;99872.97;5181214;27;20141;-62
2023/09/15 04:20:53;;;;;;;3.00;2.28;;;;;;;12.28;100.00;99891.53;5181405;27;20138;-64
2023/09/15 04:23:19;;;;;;;3.22;2.08;;;;;;;12.92;100.00;99890.13;5180981;27;20046;-62
2023/09/15 04:25:45;;;;;;;4.57;2.22;;;;;;;12.75;100.00;99913.38;5181240;27;20051;-61
2023/09/15 04:28:11;;;;;;;3.30;1.88;;;;;;;13.20;100.00;99950.47;5180866;27;20058;-61
2023/09/15 04:30:37;;;;;;;2.47;1.75;;;;;;;13.39;100.00;99979.97;5181142;27;20407;-64
2023/09/15 04:33:04;;;;;;;3.55;1.95;;;;;;;13.73;100.00;99981.03;5180760;27;20167;-64
2023/09/15 04:35:30;;;;;;;2.75;2.22;;;;;;;13.49;100.00;99957.34;5181190;27;20435;-63
2023/09/15 04:37:56;;;;;;;5.30;1.67;;;;;;;13.28;100.00;99943.19;5180527;27;20050;-63
2023/09/15 04:40:22;;;;;;;3.20;2.08;;;;;;;12.94;100.00;99984.94;5180846;27;20046;-62
2023/09/15 04:42:48;;;;;;;4.30;2.15;;;;;;;12.68;100.00;100007.56;5180628;27;20419;-63
2023/09/15 04:45:14;;;;;;;6.30;2.30;;;;;;;12.51;100.00;100010.69;5180668;27;20130;-63
2023/09/15 04:47:40;;;;;;;3.03;2.20;;;;;;;12.46;100.00;100022.78;5180743;27;20087;-63
2023/09/15 04:50:08;;;;;;;4.35;2.00;;;;;;;12.21;100.00;100018.63;5180416;27;20077;-63
2023/09/15 04:52:34;;;;;;;4.35;1.85;;;;;;;12.48;100.00;100025.97;5180757;27;20129;-63
2023/09/15 04:55:00;;;;;;;2.65;2.20;;;;;;;12.38;100.00;100031.22;5180206;27;20157;-63
2023/09/15 04:57:26;;;;;;;3.55;1.75;;;;;;;12.16;100.00;100033.44;5180417;27;20376;-63
2023/09/15 04:59:53;;;;;;;2.65;2.00;;;;;;;11.84;100.00;100034.53;5180336;27;20077;-63
2023/09/15 05:02:19;;;;;;;2.38;1.95;;;;;;;12.28;100.00;100037.25;5180433;27;20095;-63
2023/09/15 05:04:46;;;;;;;3.80;2.03;;;;;;;12.08;100.00;100039.88;5180048;27;20081;-63
2023/09/15 05:07:12;;;;;;;3.83;1.98;;;;;;;12.20;100.00;100047.28;5180348;27;20050;-63
2023/09/15 05:09:38;;;;;;;4.18;2.35;;;;;;;12.32;100.00;100055.41;5179594;27;20161;-64
2023/09/15 05:12:05;;;;;;;2.85;1.85;;;;;;;12.29;100.00;100053.38;5180204;27;20096;-66
2023/09/15 05:14:31;;;;;;;2.83;1.90;;;;;;;12.50;100.00;100057.84;5180263;27;20296;-64
2023/09/15 05:16:57;;;;;;;2.03;1.73;;;;;;;12.65;100.00;100059.75;5178815;27;20098;-64
2023/09/15 05:19:23;;;;;;;4.07;2.22;;;;;;;12.53;100.00;100055.16;5179912;27;20102;-63
2023/09/15 05:21:49;;;;;;;1.90;1.75;;;;;;;12.84;100.00;100054.31;5180379;27;20081;-63
2023/09/15 05:24:15;;;;;;;4.07;1.90;;;;;;;12.94;100.00;100053.75;5179679;27;20050;-61
2023/09/15 05:26:41;;;;;;;3.95;1.80;;;;;;;12.85;100.00;100050.41;5180106;27;20050;-60
2023/09/15 05:29:08;;;;;;;2.90;1.92;;;;;;;13.03;100.00;100042.56;5179649;27;20046;-61
2023/09/15 05:31:34;;;;;;;3.25;1.83;;;;;;;12.94;100.00;100031.72;5180149;27;20137;-61
2023/09/15 05:34:00;;;;;;;4.00;2.13;;;;;;;12.78;100.00;100049.44;5179541;27;20050;-63
2023/09/15 05:36:26;;;;;;;7.05;2.15;;;;;;;12.89;100.00;100042.22;5179500;27;20107;-63
2023/09/15 05:38:52;;;;;;;2.75;2.15;;;;;;;12.91;100.00;100051.72;5179503;27;20469;-61
2023/09/15 05:41:18;;;;;;;6.15;2.25;;;;;;;12.90;100.00;100041.09;5180018;27;20053;-62
2023/09/15 05:43:44;;;;;;;1.83;1.55;;;;;;;12.99;100.00;100049.91;5179788;27;20125;-63
2023/09/15 05:46:11;;;;;;;2.80;2.10;;;;;;;13.16;100.00;100062.47;5179657;27;20125;-62
2023/09/15 05:48:37;;;;;;;4.57;2.10;;;;;;;12.93;100.00;100060.44;5179769;27;20097;-63
2023/09/15 05:51:04;;;;;;;2.17;1.88;;;;;;;12.97;100.00;100052.25;5179702;27;20054;-61
2023/09/15 05:53:30;;;;;;;6.03;1.90;;;;;;;13.04;100.00;100032.34;5179521;27;20050;-62
2023/09/15 05:55:57;;;;;;;2.30;1.67;;;;;;;12.93;100.00;99993.56;5179110;27;20058;-61
2023/09/15 05:58:23;;;;;;;2.78;1.38;;;;;;;13.02;100.00;99976.84;5179797;27;20141;-61
2023/09/15 06:00:50;;;;;;;1.88;1.67;;;;;;;13.01;100.00;99970.53;5179270;27;20042;-62
2023/09/15 06:03:17;;;;;;;2.42;2.00;;;;;;;13.09;100.00;99979.72;5179690;27;20041;-60
2023/09/15 06:05:43;;;;;;;5.90;2.08;;;;;;;13.31;100.00;99975.50;5179305;27;20129;-62
2023/09/15 06:08:08;;;;;;;4.20;1.73;;;;;;;13.14;100.00;99949.16;5178925;27;20077;-61
2023/09/15 06:10:35;;;;;;;7.63;2.00;;;;;;;13.05;100.00;99952.13;5179329;27;20149;-61
2023/09/15 06:13:01;;;;;;;7.90;1.92;;;;;;;13.13;100.00;99929.13;5178670;27;20046;-62
2023/09/15 06:15:27;;;;;;;1.73;1.63;;;;;;;13.09;100.00;99988.78;5178850;27;20077;-61
2023/09/15 06:17:53;;;;;;;3.53;1.70;;;;;;;13.38;100.00;99995.69;5178500;27;20054;-63
2023/09/15 06:20:20;;;;;;;2.80;1.90;;;;;;;13.31;100.00;100008.53;5178843;27;20141;-64
2023/09/15 06:22:45;;;;;;;1.90;1.60;;;;;;;13.07;100.00;100020.59;5178516;27;20051;-64
2023/09/15 06:25:11;;;;;;;2.25;1.70;;;;;;;13.21;100.00;100015.38;5178786;27;20141;-64
2023/09/15 06:27:37;;;;;;;2.78;1.80;;;;;;;13.03;100.00;99989.44;5178095;27;20384;-62
2023/09/15 06:30:04;;;;;;;2.58;1.50;;;;;;;13.13;100.00;100027.44;5179183;27;20078;-62
2023/09/15 06:32:30;;;;;;;3.03;2.00;;;;;;;13.32;100.00;99997.16;5178277;27;20100;-64
2023/09/15 06:34:56;;;;;;;2.28;1.63;;;;;;;13.30;100.00;100001.44;5178199;27;20490;-62
2023/09/15 06:37:22;;;;;;;1.70;1.58;;;;;;;13.23;100.00;100006.75;5178448;27;20065;-63
2023/09/15 06:39:48;;;;;;;1.80;1.70;;;;;;;13.16;100.00;100027.50;5178717;27;20061;-64
2023/09/15 06:42:14;;;;;;;2.00;1.80;;;;;;;13.33;100.00;100033.78;5178478;27;20390;-62
2023/09/15 06:44:40;;;;;;;4.55;2.13;;;;;;;13.41;100.00;99996.94;5178249;27;20046;-62
2023/09/15 06:47:06;;;;;;;1.50;1.40;;;;;;;13.03;100.00;99976.50;5178601;27;20053;-61
2023/09/15 06:49:32;;;;;;;3.40;1.50;;;;;;;13.31;100.00;99956.22;5178448;27;20046;-64
2023/09/15 06:51:58;;;;;;;2.85;1.75;;;;;;;13.22;100.00;99996.91;5178562;27;20152;-64
2023/09/15 06:54:24;;;;;;;2.55;1.58;;;;;;;13.41;100.00;100024.47;5177894;27;20304;-63
2023/09/15 06:56:51;;;;;;;3.05;1.40;;;;;;;13.45;100.00;99967.50;5178107;27;20060;-64
2023/09/15 06:59:17;;;;;;;2.45;1.52;;;;;;;13.58;100.00;99959.88;5177907;27;20334;-64
2023/09/15 07:01:43;;;;;;;1.70;1.58;;;;;;;13.49;100.00;99905.00;5178259;27;20137;-63
2023/09/15 07:04:12;;;;;;;2.88;1.67;;;;;;;13.50;100.00;99876.31;5177615;27;20137;-62
2023/09/15 07:06:38;;;;;;;5.15;1.65;;;;;;;13.63;100.00;99897.00;5177952;27;20323;-64
2023/09/15 07:09:05;;;;;;;2.03;1.60;;;;;;;13.41;100.00;99826.97;5177794;27;20330;-64
2023/09/15 07:11:31;;;;;;;1.63;1.40;;;;;;;13.57;100.00;99798.50;5177910;27;20054;-63
2023/09/15 07:13:57;;;;;;;2.25;1.40;;;;;;;13.58;100.00;99770.56;5178035;27;20092;-63
2023/09/15 07:16:23;;;;;;;2.53;1.52;;;;;;;13.78;100.00;99749.22;5177680;27;20339;-63
2023/09/15 07:18:49;;;;;;;2.97;1.60;;;;;;;13.88;100.00;99715.50;5178099;27;20057;-63
2023/09/15 07:21:15;;;;;;;3.08;1.42;;;;;;;13.69;100.00;99594.41;5177818;27;20141;-62
2023/09/15 07:23:41;;;;;;;1.70;1.60;;;;;;;13.81;100.00;99563.06;5177948;27;20077;-60
2023/09/15 07:26:07;;;;;;;3.75;1.70;;;;;;;14.05;100.00;99534.94;5177548;27;20081;-61
2023/09/15 07:28:34;;;;;;;4.28;1.50;;;;;;;14.40;100.00;99478.53;5177925;27;20203;-62
2023/09/15 08:06:05;;;;;;;1.30;1.02;;;;;;;17.45;100.00;98956.78;5147237;27;20045;-60
2023/09/15 08:08:31;;;;;;;5.00;2.35;;;;;;;18.04;100.00;98959.13;5159381;27;20141;-59
2023/09/15 08:10:57;;;;;;;2.72;1.45;;;;;;;18.91;100.00;99091.78;5159819;27;20054;-60
2023/09/15 08:13:23;;;;;;;1.67;1.33;;;;;;;19.91;100.00;99184.47;5159807;27;20042;-61
2023/09/15 08:15:51;;;;;;;2.78;1.50;;;;;;;19.21;100.00;99180.56;5180469;27;20081;-63
2023/09/15 08:18:17;;;;;;;2.50;1.60;;;;;;;19.40;100.00;99184.59;5181102;27;20137;-61
2023/09/15 08:20:43;;;;;;;5.80;1.88;;;;;;;18.98;100.00;99166.66;5180841;27;20338;-60
2023/09/15 08:23:10;;;;;;;5.63;1.75;;;;;;;18.14;100.00;99129.38;5181069;27;20064;-60
2023/09/15 08:25:36;;;;;;;3.67;1.60;;;;;;;18.45;100.00;99110.69;5180713;27;20058;-62
2023/09/15 08:28:02;;;;;;;5.00;1.60;;;;;;;19.18;100.00;99181.41;5180929;27;20323;-61
2023/09/15 08:30:29;;;;;;;3.00;1.73;;;;;;;18.94;100.00;99190.94;5180616;27;20096;-64
2023/09/15 08:32:55;;;;;;;4.40;1.75;;;;;;;17.81;100.00;99156.75;5180569;27;20464;-65
2023/09/15 08:35:21;;;;;;;2.25;1.48;;;;;;;18.87;100.00;99129.94;5180801;27;20373;-65
2023/09/15 08:37:48;;;;;;;1.95;1.77;;;;;;;19.34;100.00;99214.09;5180275;27;20082;-60
2023/09/15 08:40:15;;;;;;;2.10;1.48;;;;;;;20.50;100.00;99289.47;5180230;27;20077;-60
2023/09/15 08:42:41;;;;;;;3.85;1.60;;;;;;;20.95;100.00;99305.66;5180077;27;20057;-60
2023/09/15 08:45:08;;;;;;;7.72;2.13;;;;;;;20.59;100.00;99362.13;5180760;27;20137;-62
2023/09/15 08:47:37;;;;;;;3.00;1.50;;;;;;;20.62;100.00;99389.09;5180296;27;20110;-59
2023/09/15 08:50:05;;;;;;;3.90;1.70;;;;;;;20.98;100.00;99407.13;5180005;27;20430;-61
2023/09/15 08:52:31;;;;;;;1.70;1.48;;;;;;;20.35;100.00;99382.84;5180874;27;20367;-63
2023/09/15 08:54:57;;;;;;;2.47;1.83;;;;;;;20.98;100.00;99393.19;5180445;27;20104;-60
2023/09/15 08:57:26;;;;;;;1.50;1.40;;;;;;;20.71;100.00;99393.34;5180183;27;20186;-62
2023/09/15 08:59:53;;;;;;;3.17;1.80;;;;;;;20.25;100.00;99372.69;5180250;27;20393;-62
2023/09/15 09:02:20;;;;;;;2.13;1.50;;;;;;;19.85;100.00;99358.66;5180323;27;20050;-63
2023/09/15 09:04:46;;;;;;;1.65;1.30;;;;;;;19.46;100.00;99346.13;5180018;27;20068;-63
2023/09/15 09:07:13;;;;;;;4.00;1.80;;;;;;;19.16;100.00;99314.44;5180375;27;20065;-61
2023/09/15 09:09:41;;;;;;;2.92;1.52;;;;;;;19.00;100.00;99326.16;5180073;27;20141;-61
2023/09/15 09:12:08;;;;;;;3.53;1.58;;;;;;;19.16;100.00;99295.00;5180243;27;20050;-63
2023/09/15 09:14:35;;;;;;;1.63;1.52;;;;;;;18.68;100.00;99314.66;5179757;27;20400;-63
2023/09/15 09:17:02;;;;;;;3.28;1.85;;;;;;;17.95;100.00;99257.63;5179522;27;20046;-62
2023/09/15 09:19:35;;;;;;;2.85;2.17;;;;;;;17.65;100.00;99245.97;5180071;27;20050;-63
2023/09/15 09:22:01;;;;;;;3.57;1.97;;;;;;;17.70;100.00;99197.63;5179751;27;20042;-64
2023/09/15 09:24:27;;;;;;;2.70;1.73;;;;;;;18.44;100.00;99270.13;5179886;27;20287;-62
2023/09/15 09:26:54;;;;;;;2.15;1.58;;;;;;;19.05;100.00;99311.78;5179641;27;20342;-63
2023/09/15 09:29:24;;;;;;;2.50;1.95;;;;;;;19.52;100.00;99350.81;5180043;27;20064;-63
2023/09/15 09:31:51;;;;;;;8.38;1.55;;;;;;;19.46;100.00;99412.88;5179500;27;20050;-63
2023/09/15 09:34:18;;;;;;;2.22;2.10;;;;;;;20.59;100.00;99426.19;5179718;27;20042;-64
2023/09/15 09:36:47;;;;;;;2.38;2.17;;;;;;;21.34;100.00;99474.91;5179355;27;20050;-62
2023/09/15 09:39:13;;;;;;;3.25;2.05;;;;;;;20.49;100.00;99482.81;5179697;27;20102;-63
2023/09/15 09:41:40;;;;;;;1.45;1.35;;;;;;;20.58;100.00;99466.38;5179403;27;20442;-61
2023/09/15 09:44:06;;;;;;;2.40;1.50;;;;;;;20.11;100.00;99446.09;5179258;27;20054;-61
2023/09/15 09:46:32;;;;;;;1.70;1.50;;;;;;;19.97;100.00;99425.63;5179420;27;20106;-61
2023/09/15 09:48:59;;;;;;;2.10;1.40;;;;;;;19.70;100.00;99422.88;5179041;27;20042;-61
2023/09/15 09:51:25;;;;;;;5.15;1.63;;;;;;;19.10;100.00;99399.47;5179322;27;20060;-61
2023/09/15 09:53:53;;;;;;;2.03;1.42;;;;;;;19.08;100.00;99389.97;5179302;27;20368;-62
2023/09/15 09:56:19;;;;;;;2.97;1.75;;;;;;;19.22;100.00;99390.56;5179492;27;20122;-62
2023/09/15 09:58:45;;;;;;;5.43;1.80;;;;;;;19.92;100.00;99425.31;5179079;27;20046;-60
2023/09/15 10:01:11;;;;;;;1.90;1.52;;;;;;;19.47;100.00;99428.38;5179518;27;20315;-61
2023/09/15 10:03:38;;;;;;;2.17;1.63;;;;;;;19.21;100.00;99408.44;5178350;27;20053;-64
2023/09/15 10:06:05;;;;;;;2.95;1.60;;;;;;;19.10;100.00;99373.69;5179350;27;20050;-60
2023/09/15 10:08:31;;;;;;;4.10;1.75;;;;;;;18.87;100.00;99366.81;5178731;27;20483;-62
2023/09/15 10:10:59;;;;;;;2.85;1.70;;;;;;;18.61;100.00;99359.19;5179304;27;20380;-61
2023/09/15 10:13:26;;;;;;;4.20;1.60;;;;;;;18.20;100.00;99326.72;5179200;27;20140;-64
2023/09/15 10:15:53;;;;;;;5.40;1.90;;;;;;;18.88;100.00;99348.16;5179188;27;20081;-62
2023/09/15 10:18:20;;;;;;;3.40;2.00;;;;;;;19.33;100.00;99398.78;5178712;27;20480;-60
2023/09/15 10:20:49;;;;;;;5.13;1.90;;;;;;;19.42;100.00;99445.50;5178711;27;20104;-61
2023/09/15 10:23:16;;;;;;;7.57;1.75;;;;;;;19.56;100.00;99439.75;5178799;27;20142;-63
2023/09/15 10:25:43;;;;;;;1.80;1.52;;;;;;;19.49;100.00;99478.75;5178419;27;20153;-64
2023/09/15 10:28:10;;;;;;;5.18;1.50;;;;;;;20.05;100.00;99473.59;5178752;27;20054;-65
2023/09/15 10:30:36;;;;;;;5.75;1.60;;;;;;;20.66;100.00;99498.50;5178564;27;20058;-63
2023/09/15 10:33:03;;;;;;;1.67;1.58;;;;;;;20.73;100.00;99500.34;5179226;27;20050;-68
2023/09/15 10:35:29;;;;;;;3.88;1.58;;;;;;;20.90;100.00;99504.81;5178061;27;20054;-66
2023/09/15 10:37:57;;;;;;;5.20;2.47;;;;;;;20.75;100.00;99508.28;5178523;27;20058;-68
2023/09/15 10:40:23;;;;;;;3.42;1.92;;;;;;;20.21;100.00;99493.22;5178533;27;20194;-63
2023/09/15 10:42:50;;;;;;;7.07;2.03;;;;;;;20.36;100.00;99512.47;5178197;27;20141;-64
2023/09/15 10:45:16;;;;;;;2.40;2.10;;;;;;;20.33;100.00;99514.13;5178502;27;20311;-69
2023/09/15 10:47:43;;;;;;;1.98;1.80;;;;;;;20.33;100.00;99530.06;5178204;27;20050;-72
2023/09/15 10:50:10;;;;;;;2.17;1.90;;;;;;;20.91;100.00;99522.31;5178671;27;20140;-64
2023/09/15 10:52:37;;;;;;;2.42;1.33;;;;;;;20.77;100.00;99531.72;5178440;27;20097;-65
2023/09/15 10:55:04;;;;;;;5.45;1.60;;;;;;;20.18;100.00;99513.56;5178616;27;20057;-63
2023/09/15 10:57:34;;;;;;;1.92;1.60;;;;;;;19.71;100.00;99499.56;5177877;27;20050;-63
2023/09/15 11:00:00;;;;;;;2.25;2.00;;;;;;;19.73;100.00;99488.03;5178729;27;20353;-66
2023/09/15 11:02:26;;;;;;;2.30;1.58;;;;;;;19.04;100.00;99484.50;5178317;27;20054;-64
2023/09/15 11:04:52;;;;;;;7.35;1.90;;;;;;;19.32;100.00;99496.47;5178591;27;20065;-65
2023/09/15 11:07:20;;;;;;;6.20;1.50;;;;;;;19.28;100.00;99513.19;5178508;27;20157;-65
2023/09/15 11:09:46;;;;;;;1.75;1.27;;;;;;;18.91;100.00;99519.56;5178379;27;20050;-67
2023/09/15 11:12:12;;;;;;;5.28;3.70;;;;;;;18.99;100.00;99507.16;5178391;27;20060;-66
2023/09/15 11:14:39;;;;;;;3.78;1.40;;;;;;;18.75;100.00;99490.34;5179665;27;20049;-64
2023/09/15 11:17:05;;;;;;;4.57;1.33;;;;;;;18.91;100.00;99500.91;5181931;27;20046;-65
2023/09/15 11:19:33;;;;;;;2.95;1.58;;;;;;;18.62;100.00;99486.47;5181928;27;20046;-61
2023/09/15 11:22:02;;;;;;;2.33;1.70;;;;;;;18.06;100.00;99494.91;5182026;27;20042;-65
2023/09/15 11:24:28;;;;;;;3.65;1.67;;;;;;;18.08;100.00;99484.16;5181597;27;20126;-63
2023/09/15 11:26:54;;;;;;;1.55;1.45;;;;;;;18.09;100.00;99476.63;5181943;27;20060;-65
2023/09/15 11:29:25;;;;;;;5.55;1.67;;;;;;;17.76;100.00;99465.00;5181454;27;20137;-60
2023/09/15 11:31:53;;;;;;;4.00;2.42;;;;;;;17.87;100.00;99459.38;5181783;27;20078;-63
2023/09/15 11:34:20;;;;;;;4.35;1.65;;;;;;;18.02;100.00;99463.59;5181192;27;20053;-63
2023/09/15 11:36:46;;;;;;;4.50;1.50;;;;;;;18.28;100.00;99464.97;5181507;27;22029;-63
2023/09/15 11:39:12;;;;;;;5.07;1.42;;;;;;;17.79;100.00;99486.38;5181586;27;20072;-65
2023/09/15 11:41:39;;;;;;;1.90;1.70;;;;;;;17.37;100.00;99460.41;5181310;27;20105;-65
2023/09/15 11:44:08;;;;;;;1.60;1.50;;;;;;;17.06;100.00;99466.88;5181314;27;20117;-63
2023/09/15 11:46:36;;;;;;;2.78;1.80;;;;;;;17.45;100.00;99482.56;5181339;27;20050;-64
2023/09/15 11:49:03;;;;;;;2.42;1.70;;;;;;;17.74;100.00;99485.97;5181564;27;20248;-61
2023/09/15 11:51:30;;;;;;;3.20;1.77;;;;;;;17.82;100.00;99481.97;5181231;27;20042;-60
2023/09/15 11:53:57;;;;;;;2.65;1.52;;;;;;;18.02;100.00;99493.31;5181494;27;20133;-64
2023/09/15 11:56:23;;;;;;;3.67;2.45;;;;;;;18.21;100.00;99519.75;5181114;27;20073;-62